Main page
METAR-TAF:

METAR-TAF

Airports :

Kaunas Airport

Kaunas, Lithuania

latitude: 54-54N, longitude: 023-55-12E, elevation: 77 m

Current weather observation

The report was made 1 hour and 41 minutes ago, at 03:20 UTC
Calm wind
Temperature 4°C
Humidity 93%
Pressure 1014 hPa
Visibility: 6000 m

METAR: EYKA 250320Z 00000KT 6000 NSC 04/03 Q1014

Time: 08:01 (05:01 UTC)

Forecast

The report was made 6 hours and 1 minutes ago, at 23:00 UTC
Forecast valid from 25 at 00 UTC to 25 at 24 UTC
Wind 4 kt from variable directions
Visibility: 9000 m
Broken clouds at a height of 3000 ft
Temporary
from 25 at 00 UTC to 25 at 06 UTC
Visibility: 5000 m
Scattered clouds at a height of 500 ft
mist
Temporary
from 25 at 12 UTC to 25 at 18 UTC
Broken clouds at a height of 2500 ft, Cumulonimbus.

TAF: EYKA 242300Z 2500/2524 VRB04KT 9000 BKN030 TEMPO 2500/2506 5000 BR SCT005 TEMPO 2512/2518 BKN025CB

Weather observations and forecasts of more than 4000 airports (METAR and TAF reports).

The available stations are represented by yellow and red dots on the map.

Hover mouse over dot to see the name of the station.

Then click to see weather observations and forecasts.

To change the map : click on the green buttons with a black cross to zoom in, on the green button with a dash to zoom out, or on the green arrows for adjacent maps.


METAR-TAF: